<?xml version="1.0" encoding="UTF-8" standalone="no" ?>
<gpx xmlns="http://www.topografix.com/GPX/1/1" xmlns:xsi="http://www.w3.org/2001/XMLSchema-instance" xsi:schemaLocation="http://www.topografix.com/GPX/1/1 http://www.topografix.com/GPX/1/1/gpx.xsd" version="1.1" creator="VisuGPX - https://www.visugpx.com">
  <metadata>
    <name>BMR - Liaison vers Therme noir par la Gachal</name>
  </metadata>
  <trk>
    <name><![CDATA[BMR - Liaison vers Therme noir par la Gachal]]></name>
    <trkseg>
      <trkpt lat="43.46533" lon="2.29515">
        <ele>861.5</ele>
        <time>2019-05-28T21:35:49Z</time>
      </trkpt>
      <trkpt lat="43.4651" lon="2.29516">
        <ele>863.9</ele>
        <time>2019-05-28T21:35:54Z</time>
      </trkpt>
      <trkpt lat="43.46488" lon="2.29517">
        <ele>866.9</ele>
        <time>2019-05-28T21:35:58Z</time>
      </trkpt>
      <trkpt lat="43.46475" lon="2.2954">
        <ele>866.6</ele>
        <time>2019-05-28T21:36:03Z</time>
      </trkpt>
      <trkpt lat="43.46461" lon="2.29563">
        <ele>866.6</ele>
        <time>2019-05-28T21:36:07Z</time>
      </trkpt>
      <trkpt lat="43.46447" lon="2.29589">
        <ele>866.8</ele>
        <time>2019-05-28T21:36:12Z</time>
      </trkpt>
      <trkpt lat="43.46433" lon="2.29615">
        <ele>867.6</ele>
        <time>2019-05-28T21:36:16Z</time>
      </trkpt>
      <trkpt lat="43.46421" lon="2.29642">
        <ele>868</ele>
        <time>2019-05-28T21:36:21Z</time>
      </trkpt>
      <trkpt lat="43.46408" lon="2.29669">
        <ele>868.9</ele>
        <time>2019-05-28T21:36:26Z</time>
      </trkpt>
      <trkpt lat="43.46407" lon="2.29702">
        <ele>867.3</ele>
        <time>2019-05-28T21:36:30Z</time>
      </trkpt>
      <trkpt lat="43.46405" lon="2.29735">
        <ele>865.7</ele>
        <time>2019-05-28T21:36:35Z</time>
      </trkpt>
      <trkpt lat="43.46397" lon="2.29761">
        <ele>866.3</ele>
        <time>2019-05-28T21:36:39Z</time>
      </trkpt>
      <trkpt lat="43.46389" lon="2.29787">
        <ele>867.3</ele>
        <time>2019-05-28T21:36:43Z</time>
      </trkpt>
      <trkpt lat="43.46388" lon="2.29816">
        <ele>866.7</ele>
        <time>2019-05-28T21:36:48Z</time>
      </trkpt>
      <trkpt lat="43.46387" lon="2.29845">
        <ele>865.9</ele>
        <time>2019-05-28T21:36:52Z</time>
      </trkpt>
      <trkpt lat="43.46374" lon="2.29878">
        <ele>867.2</ele>
        <time>2019-05-28T21:36:57Z</time>
      </trkpt>
      <trkpt lat="43.46362" lon="2.2991">
        <ele>868.2</ele>
        <time>2019-05-28T21:37:03Z</time>
      </trkpt>
      <trkpt lat="43.4635" lon="2.29935">
        <ele>868.9</ele>
        <time>2019-05-28T21:37:07Z</time>
      </trkpt>
      <trkpt lat="43.46338" lon="2.29959">
        <ele>869.4</ele>
        <time>2019-05-28T21:37:11Z</time>
      </trkpt>
      <trkpt lat="43.46316" lon="2.29976">
        <ele>872.7</ele>
        <time>2019-05-28T21:37:16Z</time>
      </trkpt>
      <trkpt lat="43.463" lon="2.30009">
        <ele>873</ele>
        <time>2019-05-28T21:37:22Z</time>
      </trkpt>
      <trkpt lat="43.46283" lon="2.30042">
        <ele>872.7</ele>
        <time>2019-05-28T21:37:28Z</time>
      </trkpt>
      <trkpt lat="43.4626" lon="2.30067">
        <ele>873.6</ele>
        <time>2019-05-28T21:37:34Z</time>
      </trkpt>
      <trkpt lat="43.46237" lon="2.30093">
        <ele>873.3</ele>
        <time>2019-05-28T21:37:40Z</time>
      </trkpt>
      <trkpt lat="43.46209" lon="2.30104">
        <ele>875</ele>
        <time>2019-05-28T21:37:46Z</time>
      </trkpt>
      <trkpt lat="43.46181" lon="2.30116">
        <ele>876.5</ele>
        <time>2019-05-28T21:37:51Z</time>
      </trkpt>
      <trkpt lat="43.46151" lon="2.30115">
        <ele>878.8</ele>
        <time>2019-05-28T21:37:57Z</time>
      </trkpt>
      <trkpt lat="43.4612" lon="2.30114">
        <ele>879.3</ele>
        <time>2019-05-28T21:38:04Z</time>
      </trkpt>
      <trkpt lat="43.46096" lon="2.30097">
        <ele>883</ele>
        <time>2019-05-28T21:38:09Z</time>
      </trkpt>
      <trkpt lat="43.46071" lon="2.30081">
        <ele>885.6</ele>
        <time>2019-05-28T21:38:14Z</time>
      </trkpt>
      <trkpt lat="43.46055" lon="2.30078">
        <ele>885.2</ele>
        <time>2019-05-28T21:38:18Z</time>
      </trkpt>
      <trkpt lat="43.46039" lon="2.30074">
        <ele>885</ele>
        <time>2019-05-28T21:38:21Z</time>
      </trkpt>
      <trkpt lat="43.46017" lon="2.30076">
        <ele>883.2</ele>
        <time>2019-05-28T21:38:25Z</time>
      </trkpt>
      <trkpt lat="43.45995" lon="2.30077">
        <ele>882</ele>
        <time>2019-05-28T21:38:30Z</time>
      </trkpt>
      <trkpt lat="43.45973" lon="2.30079">
        <ele>883.1</ele>
        <time>2019-05-28T21:38:34Z</time>
      </trkpt>
      <trkpt lat="43.45954" lon="2.30075">
        <ele>885.2</ele>
        <time>2019-05-28T21:38:38Z</time>
      </trkpt>
      <trkpt lat="43.45935" lon="2.30072">
        <ele>887.2</ele>
        <time>2019-05-28T21:38:42Z</time>
      </trkpt>
      <trkpt lat="43.4591" lon="2.30093">
        <ele>885.2</ele>
        <time>2019-05-28T21:38:48Z</time>
      </trkpt>
      <trkpt lat="43.45881" lon="2.30109">
        <ele>885.1</ele>
        <time>2019-05-28T21:38:54Z</time>
      </trkpt>
      <trkpt lat="43.45858" lon="2.30104">
        <ele>887</ele>
        <time>2019-05-28T21:38:59Z</time>
      </trkpt>
      <trkpt lat="43.45834" lon="2.301">
        <ele>889</ele>
        <time>2019-05-28T21:39:03Z</time>
      </trkpt>
      <trkpt lat="43.45813" lon="2.30089">
        <ele>891.6</ele>
        <time>2019-05-28T21:39:08Z</time>
      </trkpt>
      <trkpt lat="43.45792" lon="2.30079">
        <ele>894.2</ele>
        <time>2019-05-28T21:39:12Z</time>
      </trkpt>
      <trkpt lat="43.45778" lon="2.30065">
        <ele>897.4</ele>
        <time>2019-05-28T21:39:16Z</time>
      </trkpt>
      <trkpt lat="43.45763" lon="2.3005">
        <ele>900.3</ele>
        <time>2019-05-28T21:39:20Z</time>
      </trkpt>
      <trkpt lat="43.45732" lon="2.30042">
        <ele>901.2</ele>
        <time>2019-05-28T21:39:26Z</time>
      </trkpt>
      <trkpt lat="43.45705" lon="2.30047">
        <ele>899.7</ele>
        <time>2019-05-28T21:39:31Z</time>
      </trkpt>
      <trkpt lat="43.45686" lon="2.30029">
        <ele>899.8</ele>
        <time>2019-05-28T21:39:36Z</time>
      </trkpt>
      <trkpt lat="43.45692" lon="2.29995">
        <ele>902.2</ele>
        <time>2019-05-28T21:39:41Z</time>
      </trkpt>
      <trkpt lat="43.45714" lon="2.29984">
        <ele>905.8</ele>
        <time>2019-05-28T21:39:46Z</time>
      </trkpt>
      <trkpt lat="43.45735" lon="2.29973">
        <ele>909.9</ele>
        <time>2019-05-28T21:39:50Z</time>
      </trkpt>
      <trkpt lat="43.45761" lon="2.29952">
        <ele>915</ele>
        <time>2019-05-28T21:39:56Z</time>
      </trkpt>
      <trkpt lat="43.4578" lon="2.29948">
        <ele>915.7</ele>
        <time>2019-05-28T21:40:00Z</time>
      </trkpt>
      <trkpt lat="43.45798" lon="2.29944">
        <ele>916.3</ele>
        <time>2019-05-28T21:40:04Z</time>
      </trkpt>
      <trkpt lat="43.45815" lon="2.29935">
        <ele>917.6</ele>
        <time>2019-05-28T21:40:07Z</time>
      </trkpt>
      <trkpt lat="43.45833" lon="2.29926">
        <ele>918.8</ele>
        <time>2019-05-28T21:40:11Z</time>
      </trkpt>
      <trkpt lat="43.45857" lon="2.29928">
        <ele>918.8</ele>
        <time>2019-05-28T21:40:16Z</time>
      </trkpt>
      <trkpt lat="43.45881" lon="2.2993">
        <ele>918.6</ele>
        <time>2019-05-28T21:40:21Z</time>
      </trkpt>
      <trkpt lat="43.45904" lon="2.29926">
        <ele>919.8</ele>
        <time>2019-05-28T21:40:26Z</time>
      </trkpt>
      <trkpt lat="43.45928" lon="2.29921">
        <ele>921.1</ele>
        <time>2019-05-28T21:40:30Z</time>
      </trkpt>
      <trkpt lat="43.4595" lon="2.2992">
        <ele>921.6</ele>
        <time>2019-05-28T21:40:35Z</time>
      </trkpt>
      <trkpt lat="43.45971" lon="2.29919">
        <ele>922.1</ele>
        <time>2019-05-28T21:40:39Z</time>
      </trkpt>
      <trkpt lat="43.45986" lon="2.29907">
        <ele>924.9</ele>
        <time>2019-05-28T21:40:42Z</time>
      </trkpt>
      <trkpt lat="43.46002" lon="2.29895">
        <ele>927.2</ele>
        <time>2019-05-28T21:40:46Z</time>
      </trkpt>
      <trkpt lat="43.46014" lon="2.29871">
        <ele>930.6</ele>
        <time>2019-05-28T21:40:50Z</time>
      </trkpt>
      <trkpt lat="43.46026" lon="2.29848">
        <ele>933.3</ele>
        <time>2019-05-28T21:40:54Z</time>
      </trkpt>
      <trkpt lat="43.46046" lon="2.29834">
        <ele>932.7</ele>
        <time>2019-05-28T21:40:59Z</time>
      </trkpt>
      <trkpt lat="43.46066" lon="2.2982">
        <ele>931.3</ele>
        <time>2019-05-28T21:41:03Z</time>
      </trkpt>
      <trkpt lat="43.46086" lon="2.29806">
        <ele>929.8</ele>
        <time>2019-05-28T21:41:08Z</time>
      </trkpt>
      <trkpt lat="43.46105" lon="2.29775">
        <ele>929.8</ele>
        <time>2019-05-28T21:41:14Z</time>
      </trkpt>
      <trkpt lat="43.46125" lon="2.29744">
        <ele>929.1</ele>
        <time>2019-05-28T21:41:20Z</time>
      </trkpt>
      <trkpt lat="43.46141" lon="2.2972">
        <ele>928</ele>
        <time>2019-05-28T21:41:25Z</time>
      </trkpt>
      <trkpt lat="43.46158" lon="2.29695">
        <ele>926.6</ele>
        <time>2019-05-28T21:41:29Z</time>
      </trkpt>
      <trkpt lat="43.46174" lon="2.29671">
        <ele>925</ele>
        <time>2019-05-28T21:41:34Z</time>
      </trkpt>
      <trkpt lat="43.46186" lon="2.29644">
        <ele>925.1</ele>
        <time>2019-05-28T21:41:39Z</time>
      </trkpt>
      <trkpt lat="43.46186" lon="2.29618">
        <ele>927.6</ele>
        <time>2019-05-28T21:41:43Z</time>
      </trkpt>
      <trkpt lat="43.46186" lon="2.29592">
        <ele>930.1</ele>
        <time>2019-05-28T21:41:46Z</time>
      </trkpt>
      <trkpt lat="43.46193" lon="2.29566">
        <ele>931.5</ele>
        <time>2019-05-28T21:41:51Z</time>
      </trkpt>
      <trkpt lat="43.46201" lon="2.2954">
        <ele>933.3</ele>
        <time>2019-05-28T21:41:55Z</time>
      </trkpt>
      <trkpt lat="43.46222" lon="2.29508">
        <ele>932.1</ele>
        <time>2019-05-28T21:42:01Z</time>
      </trkpt>
      <trkpt lat="43.46244" lon="2.29477">
        <ele>931.1</ele>
        <time>2019-05-28T21:42:07Z</time>
      </trkpt>
      <trkpt lat="43.46259" lon="2.29453">
        <ele>930.9</ele>
        <time>2019-05-28T21:42:12Z</time>
      </trkpt>
      <trkpt lat="43.46273" lon="2.29429">
        <ele>931.1</ele>
        <time>2019-05-28T21:42:16Z</time>
      </trkpt>
      <trkpt lat="43.46287" lon="2.29405">
        <ele>931</ele>
        <time>2019-05-28T21:42:21Z</time>
      </trkpt>
      <trkpt lat="43.46304" lon="2.29375">
        <ele>931.1</ele>
        <time>2019-05-28T21:42:26Z</time>
      </trkpt>
      <trkpt lat="43.4632" lon="2.29345">
        <ele>931.4</ele>
        <time>2019-05-28T21:42:32Z</time>
      </trkpt>
      <trkpt lat="43.46336" lon="2.29315">
        <ele>931.4</ele>
        <time>2019-05-28T21:42:37Z</time>
      </trkpt>
      <trkpt lat="43.4635" lon="2.29287">
        <ele>931.4</ele>
        <time>2019-05-28T21:42:42Z</time>
      </trkpt>
      <trkpt lat="43.46353" lon="2.29264">
        <ele>933</ele>
        <time>2019-05-28T21:42:45Z</time>
      </trkpt>
      <trkpt lat="43.46357" lon="2.29241">
        <ele>934.1</ele>
        <time>2019-05-28T21:42:49Z</time>
      </trkpt>
      <trkpt lat="43.46356" lon="2.29202">
        <ele>936.4</ele>
        <time>2019-05-28T21:42:55Z</time>
      </trkpt>
      <trkpt lat="43.46355" lon="2.29163">
        <ele>938.5</ele>
        <time>2019-05-28T21:43:00Z</time>
      </trkpt>
      <trkpt lat="43.46347" lon="2.29131">
        <ele>941.1</ele>
        <time>2019-05-28T21:43:05Z</time>
      </trkpt>
      <trkpt lat="43.46339" lon="2.29099">
        <ele>944</ele>
        <time>2019-05-28T21:43:10Z</time>
      </trkpt>
      <trkpt lat="43.46328" lon="2.29078">
        <ele>946.9</ele>
        <time>2019-05-28T21:43:14Z</time>
      </trkpt>
      <trkpt lat="43.46318" lon="2.29057">
        <ele>948.3</ele>
        <time>2019-05-28T21:43:18Z</time>
      </trkpt>
      <trkpt lat="43.46303" lon="2.29041">
        <ele>951.5</ele>
        <time>2019-05-28T21:43:21Z</time>
      </trkpt>
      <trkpt lat="43.46289" lon="2.29026">
        <ele>955</ele>
        <time>2019-05-28T21:43:25Z</time>
      </trkpt>
      <trkpt lat="43.46274" lon="2.29005">
        <ele>958.4</ele>
        <time>2019-05-28T21:43:29Z</time>
      </trkpt>
      <trkpt lat="43.46271" lon="2.2898">
        <ele>959.6</ele>
        <time>2019-05-28T21:43:33Z</time>
      </trkpt>
      <trkpt lat="43.46275" lon="2.28953">
        <ele>958.6</ele>
        <time>2019-05-28T21:43:37Z</time>
      </trkpt>
      <trkpt lat="43.46279" lon="2.28926">
        <ele>957.6</ele>
        <time>2019-05-28T21:43:41Z</time>
      </trkpt>
      <trkpt lat="43.46285" lon="2.28886">
        <ele>959.8</ele>
        <time>2019-05-28T21:43:47Z</time>
      </trkpt>
      <trkpt lat="43.46291" lon="2.28846">
        <ele>963.1</ele>
        <time>2019-05-28T21:43:53Z</time>
      </trkpt>
      <trkpt lat="43.46298" lon="2.2882">
        <ele>965.1</ele>
        <time>2019-05-28T21:43:57Z</time>
      </trkpt>
      <trkpt lat="43.46304" lon="2.28794">
        <ele>968</ele>
        <time>2019-05-28T21:44:01Z</time>
      </trkpt>
      <trkpt lat="43.46319" lon="2.28772">
        <ele>968.2</ele>
        <time>2019-05-28T21:44:05Z</time>
      </trkpt>
      <trkpt lat="43.46334" lon="2.2875">
        <ele>968.9</ele>
        <time>2019-05-28T21:44:09Z</time>
      </trkpt>
      <trkpt lat="43.46353" lon="2.28737">
        <ele>967.1</ele>
        <time>2019-05-28T21:44:14Z</time>
      </trkpt>
      <trkpt lat="43.46372" lon="2.28724">
        <ele>965.2</ele>
        <time>2019-05-28T21:44:18Z</time>
      </trkpt>
      <trkpt lat="43.46387" lon="2.287">
        <ele>966</ele>
        <time>2019-05-28T21:44:23Z</time>
      </trkpt>
      <trkpt lat="43.46402" lon="2.28675">
        <ele>966.7</ele>
        <time>2019-05-28T21:44:27Z</time>
      </trkpt>
      <trkpt lat="43.46415" lon="2.28643">
        <ele>965.9</ele>
        <time>2019-05-28T21:44:33Z</time>
      </trkpt>
      <trkpt lat="43.46416" lon="2.28619">
        <ele>966.4</ele>
        <time>2019-05-28T21:44:36Z</time>
      </trkpt>
      <trkpt lat="43.46416" lon="2.28596">
        <ele>966.9</ele>
        <time>2019-05-28T21:44:40Z</time>
      </trkpt>
      <trkpt lat="43.4641" lon="2.28572">
        <ele>968.7</ele>
        <time>2019-05-28T21:44:43Z</time>
      </trkpt>
      <trkpt lat="43.46404" lon="2.28548">
        <ele>970.2</ele>
        <time>2019-05-28T21:44:47Z</time>
      </trkpt>
      <trkpt lat="43.46394" lon="2.28563">
        <ele>972.6</ele>
        <time>2019-05-28T21:44:50Z</time>
      </trkpt>
      <trkpt lat="43.46386" lon="2.28585">
        <ele>974.7</ele>
        <time>2019-05-28T21:44:54Z</time>
      </trkpt>
      <trkpt lat="43.46377" lon="2.28607">
        <ele>976</ele>
        <time>2019-05-28T21:44:57Z</time>
      </trkpt>
      <trkpt lat="43.46369" lon="2.28626">
        <ele>977.1</ele>
        <time>2019-05-28T21:45:00Z</time>
      </trkpt>
      <trkpt lat="43.46361" lon="2.28644">
        <ele>978</ele>
        <time>2019-05-28T21:45:04Z</time>
      </trkpt>
      <trkpt lat="43.46345" lon="2.28663">
        <ele>980.7</ele>
        <time>2019-05-28T21:45:08Z</time>
      </trkpt>
      <trkpt lat="43.46329" lon="2.28681">
        <ele>981.8</ele>
        <time>2019-05-28T21:45:12Z</time>
      </trkpt>
      <trkpt lat="43.46304" lon="2.28701">
        <ele>984.7</ele>
        <time>2019-05-28T21:45:18Z</time>
      </trkpt>
      <trkpt lat="43.46279" lon="2.28722">
        <ele>987.8</ele>
        <time>2019-05-28T21:45:24Z</time>
      </trkpt>
      <trkpt lat="43.4626" lon="2.28736">
        <ele>990.4</ele>
        <time>2019-05-28T21:45:28Z</time>
      </trkpt>
      <trkpt lat="43.46242" lon="2.2875">
        <ele>993.5</ele>
        <time>2019-05-28T21:45:32Z</time>
      </trkpt>
      <trkpt lat="43.46223" lon="2.28765">
        <ele>997.1</ele>
        <time>2019-05-28T21:45:36Z</time>
      </trkpt>
      <trkpt lat="43.46205" lon="2.28787">
        <ele>999.1</ele>
        <time>2019-05-28T21:45:41Z</time>
      </trkpt>
      <trkpt lat="43.46188" lon="2.2881">
        <ele>1001.1</ele>
        <time>2019-05-28T21:45:46Z</time>
      </trkpt>
      <trkpt lat="43.4617" lon="2.28833">
        <ele>1003</ele>
        <time>2019-05-28T21:45:51Z</time>
      </trkpt>
      <trkpt lat="43.46151" lon="2.2886">
        <ele>1004.6</ele>
        <time>2019-05-28T21:45:56Z</time>
      </trkpt>
      <trkpt lat="43.46131" lon="2.28886">
        <ele>1006.6</ele>
        <time>2019-05-28T21:46:02Z</time>
      </trkpt>
      <trkpt lat="43.46112" lon="2.28912">
        <ele>1009.1</ele>
        <time>2019-05-28T21:46:07Z</time>
      </trkpt>
      <trkpt lat="43.46101" lon="2.2894">
        <ele>1010.6</ele>
        <time>2019-05-28T21:46:12Z</time>
      </trkpt>
      <trkpt lat="43.4609" lon="2.28967">
        <ele>1012</ele>
        <time>2019-05-28T21:46:16Z</time>
      </trkpt>
      <trkpt lat="43.4608" lon="2.28994">
        <ele>1013.1</ele>
        <time>2019-05-28T21:46:21Z</time>
      </trkpt>
      <trkpt lat="43.46079" lon="2.29036">
        <ele>1012.4</ele>
        <time>2019-05-28T21:46:27Z</time>
      </trkpt>
      <trkpt lat="43.46079" lon="2.29078">
        <ele>1012.1</ele>
        <time>2019-05-28T21:46:33Z</time>
      </trkpt>
      <trkpt lat="43.46076" lon="2.29104">
        <ele>1012.5</ele>
        <time>2019-05-28T21:46:37Z</time>
      </trkpt>
      <trkpt lat="43.46067" lon="2.29101">
        <ele>1014.7</ele>
        <time>2019-05-28T21:46:39Z</time>
      </trkpt>
      <trkpt lat="43.46062" lon="2.29093">
        <ele>1016</ele>
        <time>2019-05-28T21:46:40Z</time>
      </trkpt>
      <trkpt lat="43.46054" lon="2.2907">
        <ele>1018</ele>
        <time>2019-05-28T21:46:44Z</time>
      </trkpt>
      <trkpt lat="43.46042" lon="2.29047">
        <ele>1020.6</ele>
        <time>2019-05-28T21:46:48Z</time>
      </trkpt>
      <trkpt lat="43.46031" lon="2.29014">
        <ele>1022.8</ele>
        <time>2019-05-28T21:46:53Z</time>
      </trkpt>
      <trkpt lat="43.46027" lon="2.2898">
        <ele>1023.4</ele>
        <time>2019-05-28T21:46:58Z</time>
      </trkpt>
      <trkpt lat="43.46019" lon="2.28967">
        <ele>1024.7</ele>
        <time>2019-05-28T21:47:01Z</time>
      </trkpt>
      <trkpt lat="43.4602" lon="2.28952">
        <ele>1024.3</ele>
        <time>2019-05-28T21:47:03Z</time>
      </trkpt>
      <trkpt lat="43.46013" lon="2.28946">
        <ele>1025.3</ele>
        <time>2019-05-28T21:47:05Z</time>
      </trkpt>
      <trkpt lat="43.46003" lon="2.28946">
        <ele>1026.7</ele>
        <time>2019-05-28T21:47:07Z</time>
      </trkpt>
      <trkpt lat="43.45995" lon="2.28964">
        <ele>1027.5</ele>
        <time>2019-05-28T21:47:10Z</time>
      </trkpt>
      <trkpt lat="43.45985" lon="2.28974">
        <ele>1027.5</ele>
        <time>2019-05-28T21:47:12Z</time>
      </trkpt>
      <trkpt lat="43.45973" lon="2.2899">
        <ele>1028</ele>
        <time>2019-05-28T21:47:16Z</time>
      </trkpt>
      <trkpt lat="43.45963" lon="2.28996">
        <ele>1028.3</ele>
        <time>2019-05-28T21:47:18Z</time>
      </trkpt>
      <trkpt lat="43.45957" lon="2.29012">
        <ele>1029.2</ele>
        <time>2019-05-28T21:47:21Z</time>
      </trkpt>
      <trkpt lat="43.45951" lon="2.29035">
        <ele>1030.5</ele>
        <time>2019-05-28T21:47:24Z</time>
      </trkpt>
      <trkpt lat="43.45949" lon="2.29076">
        <ele>1033</ele>
        <time>2019-05-28T21:47:30Z</time>
      </trkpt>
      <trkpt lat="43.45947" lon="2.29102">
        <ele>1033.9</ele>
        <time>2019-05-28T21:47:34Z</time>
      </trkpt>
      <trkpt lat="43.45946" lon="2.29127">
        <ele>1034.6</ele>
        <time>2019-05-28T21:47:38Z</time>
      </trkpt>
      <trkpt lat="43.45946" lon="2.29164">
        <ele>1035.4</ele>
        <time>2019-05-28T21:47:43Z</time>
      </trkpt>
      <trkpt lat="43.45943" lon="2.29194">
        <ele>1035.6</ele>
        <time>2019-05-28T21:47:47Z</time>
      </trkpt>
      <trkpt lat="43.45935" lon="2.2921">
        <ele>1036.4</ele>
        <time>2019-05-28T21:47:50Z</time>
      </trkpt>
      <trkpt lat="43.45926" lon="2.29218">
        <ele>1037.5</ele>
        <time>2019-05-28T21:47:52Z</time>
      </trkpt>
      <trkpt lat="43.45914" lon="2.29217">
        <ele>1038.4</ele>
        <time>2019-05-28T21:47:55Z</time>
      </trkpt>
      <trkpt lat="43.45905" lon="2.29224">
        <ele>1037.8</ele>
        <time>2019-05-28T21:47:57Z</time>
      </trkpt>
    </trkseg>
  </trk>
</gpx>